KTQE

Details ICAO KTQE
Name TEKAMAH MUNI
Region United States
Timezone America/Chicago (UTC-5.0)
Plans Departing 2
Arriving 2
Stats Elevation 1,027 ft / 313 m (AMSL)
Location 41.763532° -96.177935°
Runways 1
Magnetic Variation 2.667° E
Sunrise 2018-05-25 10:57:53 UTC / 2018-05-25 05:57:53 Local
Sunset 2018-05-26 01:48:20 UTC / 2018-05-25 20:48:20 Local
Advertisement - Login to hide

Runways

ID Width Length Bearing (true) Bearing (mag) Surface Threshold Offset Overrun Length
14 75 ft / 23 m 4,010 ft / 1,222 m 153.70° 151.03° Concrete 0 ft / 0 m 0 ft / 0 m
32 75 ft / 23 m 4,010 ft / 1,222 m 333.70° 331.03° Concrete 0 ft / 0 m 0 ft / 0 m

Map

Weather


0- 5 10 15 20 25 30 35+ Temperature / ° C

Clouds and Precipitation
Forecast for 2018-05-26 00:00 UTC. Updated 5 hours ago

Ground ~20,000 ft ~40,000 ft Winds

METAR

KTQE 260354Z AUTO 00000KT 10SM CLR 24/18 A2973 RMK AO2 SLP054 T02390178

TAF

Not found

Frequencies

Recorded 127.27 MHz ASOS
Approach 124.50 MHz OMAHA APP/DEP
Unicom 123.00 MHz CTAF/UNICOM
Warning: Do not use this data for real-world aviation or navigation. No guarantee of current accuracy is given.